^^
Marion, Virginia Banner
 

Adwolf, VA. Station Historical Data
[ Providing Data Since 6/07/2007 ]
Station Historical Data
Daily Summary for April 21, 2017 Units:  Metric    English   Both
« Previous Day
Next Day »
Daily Weekly Monthly Yearly Custom
  High: Low: Average:
Temperature: 24.7 °C 13.3 °C 17.9 °C
Dew Point: 18.6 °C 12.2 °C 15.7 °C
Humidity: 96% 63% 88%
Wind Speed: 22.2km/h 0km/h 5.3km/h
Wind Gust: 22.2km/h - -
Wind- - SW
Pressure: 1016.8 hPa 1011.7 hPa -
Precipitation: 10.67 mm    
Historical Graphs
 
 
Tabular Data for April 21, 2017
Time Temperature Dew Point Pressure Wind Wind Speed Wind Gust Humidity Rainfall Rate (Hourly) solar Conditions
00:02 15 °C 13.3 °C 1016.5 hPa WSW 1.9 km/h   90% 0 mm WeatherDisplay:10.37 W/m2 CLR
00:07 14.9 °C 13.3 °C 1016.5 hPa Calm     90% 0 mm WeatherDisplay:10.37 W/m2 CLR
00:12 14.8 °C 13.2 °C 1016.8 hPa Calm     90% 0 mm WeatherDisplay:10.37 W/m2 CLR
00:17 14.7 °C 13.1 °C 1016.5 hPa Calm     90% 0 mm WeatherDisplay:10.37 W/m2 CLR
00:22 14.6 °C 12.9 °C 1016.5 hPa Calm     90% 0 mm WeatherDisplay:10.37 W/m2 CLR
00:27 14.5 °C 13 °C 1016.5 hPa WSW 1.9 km/h 1.9 km/h 91% 0 mm WeatherDisplay:10.37 W/m2 CLR
00:32 14.4 °C 12.9 °C 1016.5 hPa Calm     91% 0 mm WeatherDisplay:10.37 W/m2 CLR
00:37 14.3 °C 12.8 °C 1016.5 hPa Calm     91% 0 mm WeatherDisplay:10.37 W/m2 CLR
00:42 14.2 °C 12.8 °C 1016.5 hPa Calm     91% 0 mm WeatherDisplay:10.37 W/m2 CLR
00:47 14.2 °C 12.7 °C 1016.5 hPa WSW 1.9 km/h 1.9 km/h 91% 0 mm WeatherDisplay:10.37 W/m2 CLR
00:52 14.1 °C 12.8 °C 1016.5 hPa WSW 1.9 km/h 1.9 km/h 92% 0 mm WeatherDisplay:10.37 W/m2 CLR
00:57 14.1 °C 12.8 °C 1016.5 hPa Calm     92% 0 mm WeatherDisplay:10.37 W/m2 CLR
01:02 14.1 °C 12.9 °C 1016.5 hPa WSW 1.9 km/h 1.9 km/h 93% 0 mm WeatherDisplay:10.37 W/m2 CLR
01:07 14.1 °C 13 °C 1016.5 hPa Calm     93% 0 mm WeatherDisplay:10.37 W/m2 CLR
01:12 14.1 °C 13 °C 1016.5 hPa Calm     93% 0 mm WeatherDisplay:10.37 W/m2 CLR
01:17 13.9 °C 12.7 °C 1016.5 hPa WSW 1.9 km/h 1.9 km/h 92% 0 mm WeatherDisplay:10.37 W/m2 CLR
01:22 13.8 °C 12.5 °C 1016.5 hPa Calm     92% 0 mm WeatherDisplay:10.37 W/m2 CLR
01:27 13.7 °C 12.4 °C 1016.5 hPa WSW 1.9 km/h 1.9 km/h 92% 0 mm WeatherDisplay:10.37 W/m2 CLR
01:32 13.7 °C 12.4 °C 1016.5 hPa WSW 3.7 km/h 3.7 km/h 92% 0 mm WeatherDisplay:10.37 W/m2 CLR
01:37 13.6 °C 12.3 °C 1016.5 hPa WSW 3.7 km/h 3.7 km/h 92% 0 mm WeatherDisplay:10.37 W/m2 CLR
01:42 13.6 °C 12.4 °C 1016.5 hPa WSW 1.9 km/h 1.9 km/h 93% 0 mm WeatherDisplay:10.37 W/m2 CLR
01:47 13.5 °C 12.4 °C 1016.5 hPa WSW 1.9 km/h 1.9 km/h 93% 0 mm WeatherDisplay:10.37 W/m2 CLR
01:52 13.7 °C 12.7 °C 1016.1 hPa Calm     94% 0 mm WeatherDisplay:10.37 W/m2 CLR
01:57 13.8 °C 12.8 °C 1016.1 hPa Calm     94% 0 mm WeatherDisplay:10.37 W/m2 CLR
02:02 13.6 °C 12.5 °C 1016.1 hPa WSW 1.9 km/h 1.9 km/h 93% 0 mm WeatherDisplay:10.37 W/m2 CLR
02:07 13.4 °C 12.2 °C 1016.5 hPa WSW 1.9 km/h   92% 0 mm WeatherDisplay:10.37 W/m2 CLR
02:12 13.3 °C 12.2 °C 1016.1 hPa WSW 1.9 km/h 1.9 km/h 93% 0 mm WeatherDisplay:10.37 W/m2 CLR
02:17 13.3 °C 12.2 °C 1016.1 hPa WSW 1.9 km/h 1.9 km/h 93% 0 mm WeatherDisplay:10.37 W/m2 CLR
02:22 13.3 °C 12.4 °C 1016.1 hPa ESE 5.6 km/h 5.6 km/h 94% 0 mm WeatherDisplay:10.37 W/m2 CLR
02:27 13.4 °C 12.4 °C 1016.1 hPa ESE 5.6 km/h 5.6 km/h 94% 0 mm WeatherDisplay:10.37 W/m2 CLR
02:32 13.4 °C 12.5 °C 1015.8 hPa ESE 1.9 km/h 1.9 km/h 94% 0 mm WeatherDisplay:10.37 W/m2 CLR
02:37 13.5 °C 12.6 °C 1015.8 hPa ESE 3.7 km/h 3.7 km/h 94% 0 mm WeatherDisplay:10.37 W/m2 CLR
02:42 13.5 °C 12.6 °C 1015.8 hPa Calm     94% 0 mm WeatherDisplay:10.37 W/m2 SCT
02:47 13.4 °C 12.3 °C 1015.8 hPa Calm     93% 0 mm WeatherDisplay:10.37 W/m2 SCT
02:52 13.4 °C 12.5 °C 1015.8 hPa ESE 1.9 km/h   94% 0 mm WeatherDisplay:10.37 W/m2 SCT
02:57 13.5 °C 12.6 °C 1015.8 hPa ESE 1.9 km/h 1.9 km/h 94% 0 mm WeatherDisplay:10.37 W/m2 SCT
03:02 13.5 °C 12.6 °C 1015.8 hPa Calm     94% 0 mm WeatherDisplay:10.37 W/m2 BKN
03:07 13.6 °C 12.6 °C 1015.8 hPa ESE 3.7 km/h 3.7 km/h 94% 0 mm WeatherDisplay:10.37 W/m2 BKN
03:12 13.6 °C 12.6 °C 1015.8 hPa ESE 3.7 km/h 3.7 km/h 94% 0 mm WeatherDisplay:10.37 W/m2 BKN
03:17 13.6 °C 12.7 °C 1015.8 hPa Calm     94% 0 mm WeatherDisplay:10.37 W/m2 BKN
03:22 13.7 °C 12.8 °C 1015.8 hPa Calm     95% 0 mm WeatherDisplay:10.37 W/m2 BKN
03:27 13.8 °C 12.9 °C 1015.8 hPa Calm     95% 0 mm WeatherDisplay:10.37 W/m2 BKN
03:32 13.9 °C 13.1 °C 1016.1 hPa Calm     95% 0 mm WeatherDisplay:10.37 W/m2 BKN
03:37 14 °C 13.2 °C 1016.1 hPa ESE 1.9 km/h 1.9 km/h 95% 0 mm WeatherDisplay:10.37 W/m2 BKN
03:43 14.1 °C 13.2 °C 1015.8 hPa ESE 3.7 km/h 3.7 km/h 95% 0 mm WeatherDisplay:10.37 W/m2 SCT
03:48 14.2 °C 13.3 °C 1015.8 hPa ESE 1.9 km/h 1.9 km/h 95% 0 mm WeatherDisplay:10.37 W/m2 SCT
03:53 14.3 °C 13.4 °C 1016.1 hPa ESE 1.9 km/h   95% 0 mm WeatherDisplay:10.37 W/m2 SCT
03:54 14.3 °C 13.4 °C 1015.8 hPa Calm     95% 0 mm WeatherDisplay:10.37 W/m2 SCT
03:59 14.4 °C 13.6 °C 1016.1 hPa ESE 1.9 km/h 1.9 km/h 95% 0 mm WeatherDisplay:10.37 W/m2 SCT
04:04 14.8 °C 14.1 °C 1016.1 hPa ESE 5.6 km/h 5.6 km/h 96% 0 mm WeatherDisplay:10.37 W/m2 BKN
04:09 15 °C 14.3 °C 1015.8 hPa SW 5.6 km/h 5.6 km/h 96% 0 mm WeatherDisplay:10.37 W/m2 BKN
04:14 15.2 °C 14.3 °C 1015.8 hPa SW 1.9 km/h 1.9 km/h 95% 0 mm WeatherDisplay:10.37 W/m2 BKN
04:19 15.3 °C 14.3 °C 1015.5 hPa SW 3.7 km/h 3.7 km/h 94% 0 mm WeatherDisplay:10.37 W/m2 BKN
04:24 15.6 °C 14.6 °C 1015.8 hPa SW 1.9 km/h 1.9 km/h 94% 0.25 mm WeatherDisplay:10.37 W/m2 RA
04:29 15.7 °C 14.6 °C 1015.5 hPa Calm     93% 0.25 mm WeatherDisplay:10.37 W/m2 RA
04:34 15.6 °C 14.1 °C 1015.5 hPa Calm     91% 0.25 mm WeatherDisplay:10.37 W/m2 OVC
04:39 15.3 °C 14 °C 1015.5 hPa SW 3.2 km/h 3.2 km/h 92% 0.25 mm WeatherDisplay:10.37 W/m2 OVC
04:44 15.1 °C 13.7 °C 1015.5 hPa Calm     92% 0.25 mm WeatherDisplay:10.37 W/m2 SCT
04:49 14.9 °C 13.7 °C 1015.5 hPa Calm     93% 0.51 mm WeatherDisplay:10.37 W/m2 RA
04:54 14.9 °C 13.9 °C 1015.8 hPa Calm     94% 0.51 mm WeatherDisplay:10.37 W/m2 RA
04:59 15 °C 14.2 °C 1015.8 hPa NW 3.7 km/h 3.7 km/h 95% 0.51 mm WeatherDisplay:10.37 W/m2 SCT
05:04 15.2 °C 14.4 °C 1015.8 hPa WSW 5.6 km/h 5.6 km/h 95% 0.51 mm WeatherDisplay:10.37 W/m2 SCT
05:09 15.4 °C 14.6 °C 1015.8 hPa WSW 4.8 km/h 4.8 km/h 95% 0.51 mm WeatherDisplay:10.37 W/m2 SCT
05:14 15.6 °C 14.7 °C 1015.8 hPa SW 5.6 km/h 5.6 km/h 95% 0.51 mm WeatherDisplay:10.37 W/m2 SCT
05:19 15.7 °C 14.7 °C 1015.8 hPa SW 5.6 km/h 5.6 km/h 94% 0.51 mm WeatherDisplay:10.37 W/m2 SCT
05:24 15.7 °C 14.7 °C 1015.8 hPa SW 1.9 km/h 1.9 km/h 94% 0.25 mm WeatherDisplay:10.37 W/m2 SCT
05:29 15.7 °C 14.7 °C 1015.8 hPa SW 3.7 km/h 3.7 km/h 94% 0.25 mm WeatherDisplay:10.37 W/m2 SCT
05:34 15.7 °C 14.7 °C 1015.8 hPa SW 1.9 km/h 1.9 km/h 94% 0.25 mm WeatherDisplay:10.37 W/m2 SCT
05:39 15.7 °C 14.7 °C 1015.8 hPa Calm     94% 0.25 mm WeatherDisplay:10.37 W/m2 SCT
05:44 15.7 °C 14.7 °C 1015.8 hPa SW 3.7 km/h 3.7 km/h 94% 0.25 mm WeatherDisplay:10.37 W/m2 BKN
05:49 15.7 °C 14.7 °C 1015.8 hPa SW 1.9 km/h   94% 0 mm WeatherDisplay:10.37 W/m2 BKN
05:54 15.6 °C 14.6 °C 1015.8 hPa Calm     94% 0 mm WeatherDisplay:10.37 W/m2 BKN
05:59 15.6 °C 14.6 °C 1015.8 hPa SW 1.9 km/h   94% 0 mm WeatherDisplay:10.37 W/m2 BKN
06:04 15.6 °C 14.6 °C 1015.8 hPa Calm     94% 0 mm WeatherDisplay:10.37 W/m2 -RA
06:09 15.6 °C 14.6 °C 1015.8 hPa Calm     94% 0 mm WeatherDisplay:10.37 W/m2 -RA
06:14 15.7 °C 14.8 °C 1015.8 hPa Calm     95% 0 mm WeatherDisplay:10.37 W/m2 -RA
06:15 15.7 °C 14.8 °C 1015.8 hPa Calm     95% 0 mm WeatherDisplay:10.37 W/m2 -RA
06:20 15.8 °C 14.9 °C 1015.8 hPa South 3.7 km/h 3.7 km/h 95% 0.25 mm WeatherDisplay:10.37 W/m2 -RA
06:25 15.8 °C 14.9 °C 1015.8 hPa South 1.9 km/h 1.9 km/h 95% 0.25 mm WeatherDisplay:10.37 W/m2 RA
06:30 15.8 °C 14.9 °C 1015.8 hPa WSW 4.8 km/h 4.8 km/h 95% 0.25 mm WeatherDisplay:10.37 W/m2 OVC
06:35 15.8 °C 15 °C 1015.8 hPa West 3.7 km/h 3.7 km/h 95% 0.25 mm WeatherDisplay:10.37 W/m2 OVC
06:40 15.9 °C 15.1 °C 1015.8 hPa West 3.7 km/h 3.7 km/h 95% 0.25 mm WeatherDisplay:10.37 W/m2 OVC
06:45 15.9 °C 15.1 °C 1015.8 hPa West 3.7 km/h 3.7 km/h 95% 0.25 mm WeatherDisplay:10.37 W/m2 OVC
06:50 15.9 °C 15.1 °C 1015.8 hPa West 3.7 km/h 3.7 km/h 95% 0.25 mm WeatherDisplay:10.37 W/m2 OVC
06:55 16 °C 15.3 °C 1015.8 hPa West 1.9 km/h 1.9 km/h 96% 0.25 mm WeatherDisplay:10.37 W/m2 OVC
07:00 16.1 °C 15.4 °C 1015.8 hPa West 1.9 km/h 1.9 km/h 96% 0.25 mm WeatherDisplay:10.37 W/m2 OVC
07:05 16.1 °C 15.4 °C 1015.8 hPa West 3.7 km/h 3.7 km/h 96% 0.25 mm WeatherDisplay:10.37 W/m2 OVC
07:10 16.1 °C 15.4 °C 1015.8 hPa West 3.7 km/h 3.7 km/h 96% 0.25 mm WeatherDisplay:10.37 W/m2 OVC
07:15 16.2 °C 15.5 °C 1015.8 hPa West 1.9 km/h 1.9 km/h 96% 0.25 mm WeatherDisplay:10.37 W/m2 OVC
07:20 16.2 °C 15.5 °C 1015.8 hPa West 1.6 km/h 1.6 km/h 96% 0 mm WeatherDisplay:10.37 W/m2 OVC
07:25 16.2 °C 15.5 °C 1015.8 hPa West 3.7 km/h 3.7 km/h 96% 0 mm WeatherDisplay:10.37 W/m2 -RA
07:30 16.2 °C 15.6 °C 1015.8 hPa West 3.7 km/h 3.7 km/h 96% 0 mm WeatherDisplay:10.37 W/m2 -RA
07:35 16.2 °C 15.6 °C 1015.8 hPa West 3.7 km/h 3.7 km/h 96% 0 mm WeatherDisplay:10.37 W/m2 -RA
07:40 16.3 °C 15.6 °C 1015.8 hPa West 3.7 km/h 3.7 km/h 96% 0 mm WeatherDisplay:10.37 W/m2 -RA
07:46 16.4 °C 15.7 °C 1015.8 hPa West 1.9 km/h 1.9 km/h 96% 0 mm WeatherDisplay:10.37 W/m2 OVC
07:50 16.4 °C 15.7 °C 1015.8 hPa West 3.7 km/h 3.7 km/h 96% 0 mm WeatherDisplay:10.37 W/m2 OVC
07:55 16.5 °C 15.8 °C 1015.8 hPa West 3.7 km/h 3.7 km/h 96% 0 mm WeatherDisplay:10.37 W/m2 OVC
08:00 16.6 °C 15.9 °C 1015.8 hPa SW 3.7 km/h 3.7 km/h 96% 0.25 mm WeatherDisplay:10.37 W/m2 RA
08:05 16.6 °C 15.9 °C 1015.8 hPa SW 5.6 km/h 5.6 km/h 96% 0.25 mm WeatherDisplay:10.37 W/m2 RA
08:10 16.7 °C 16.1 °C 1015.8 hPa SW 3.7 km/h 3.7 km/h 96% 0.25 mm WeatherDisplay:10.37 W/m2 OVC
08:15 16.7 °C 15.8 °C 1016.1 hPa SW 4.8 km/h 4.8 km/h 95% 0.25 mm WeatherDisplay:10.37 W/m2 OVC
08:20 16.7 °C 15.8 °C 1016.1 hPa WSW 5.6 km/h 5.6 km/h 95% 0.25 mm WeatherDisplay:10.37 W/m2 OVC
08:26 16.7 °C 15.8 °C 1016.1 hPa WSW 3.7 km/h 3.7 km/h 95% 0.25 mm WeatherDisplay:10.37 W/m2 OVC
08:30 16.7 °C 15.8 °C 1016.1 hPa West 5.6 km/h 5.6 km/h 95% 0.25 mm WeatherDisplay:10.37 W/m2 OVC
08:35 16.7 °C 15.8 °C 1016.1 hPa SW 3.7 km/h 3.7 km/h 95% 0.25 mm WeatherDisplay:10.37 W/m2 OVC
08:40 16.7 °C 15.9 °C 1016.1 hPa SW 3.7 km/h 3.7 km/h 95% 0.25 mm WeatherDisplay:10.37 W/m2 OVC
08:45 16.8 °C 15.9 °C 1016.1 hPa SW 3.7 km/h 3.7 km/h 95% 0.25 mm WeatherDisplay:10.37 W/m2 +RA
08:50 16.8 °C 16 °C 1016.1 hPa SW 3.7 km/h 3.7 km/h 95% 0.25 mm WeatherDisplay:10.37 W/m2 +RA
08:55 16.9 °C 16.1 °C 1016.1 hPa WSW 3.7 km/h 3.7 km/h 95% 0.25 mm WeatherDisplay:10.37 W/m2 +RA
09:00 16.9 °C 16.1 °C 1016.1 hPa West 3.7 km/h 3.7 km/h 95% 0 mm WeatherDisplay:10.37 W/m2 +RA
09:05 16.9 °C 16.1 °C 1016.1 hPa West 3.7 km/h 3.7 km/h 95% 0 mm WeatherDisplay:10.37 W/m2 OVC
09:10 17 °C 16.2 °C 1016.1 hPa WSW 3.7 km/h 3.7 km/h 95% 0 mm WeatherDisplay:10.37 W/m2 OVC
09:15 17.1 °C 16.2 °C 1016.1 hPa SW 5.6 km/h 5.6 km/h 95% 1.02 mm WeatherDisplay:10.37 W/m2 RA
09:20 17 °C 16.2 °C 1015.8 hPa SW 3.7 km/h 3.7 km/h 95% 1.78 mm WeatherDisplay:10.37 W/m2 RA
09:26 17 °C 16.2 °C 1015.8 hPa SW 3.7 km/h 3.7 km/h 95% 1.78 mm WeatherDisplay:10.37 W/m2 RA
09:30 17 °C 16.2 °C 1015.8 hPa SW 3.7 km/h 3.7 km/h 95% 1.78 mm WeatherDisplay:10.37 W/m2 OVC
09:35 17.1 °C 16.4 °C 1015.8 hPa SW 3.7 km/h 3.7 km/h 96% 1.78 mm WeatherDisplay:10.37 W/m2 OVC
09:41 17.1 °C 16.2 °C 1016.1 hPa SW 5.6 km/h 5.6 km/h 95% 2.29 mm WeatherDisplay:10.37 W/m2 RA
09:45 17.1 °C 16.4 °C 1016.1 hPa West 5.6 km/h 5.6 km/h 96% 3.3 mm WeatherDisplay:10.37 W/m2 -DZ
09:50 17.1 °C 16.4 °C 1016.1 hPa West 3.7 km/h 3.7 km/h 96% 3.56 mm WeatherDisplay:10.37 W/m2 -DZ
09:56 17.1 °C 16.4 °C 1016.1 hPa SW 5.6 km/h 5.6 km/h 96% 3.56 mm WeatherDisplay:10.37 W/m2 -DZ
10:01 17.1 °C 16.4 °C 1016.1 hPa WSW 1.9 km/h 1.9 km/h 96% 3.56 mm WeatherDisplay:10.37 W/m2 -DZ
10:05 17.2 °C 16.6 °C 1016.1 hPa WSW 1.9 km/h 1.9 km/h 96% 3.56 mm WeatherDisplay:10.37 W/m2 OVC
10:11 17.2 °C 16.6 °C 1016.1 hPa West 3.7 km/h 3.7 km/h 96% 3.56 mm WeatherDisplay:10.37 W/m2 OVC
10:15 17.3 °C 16.7 °C 1016.1 hPa West 1.9 km/h 2.3 km/h 96% 2.54 mm WeatherDisplay:10.37 W/m2 OVC
10:20 17.4 °C 16.8 °C 1016.1 hPa WSW 5.6 km/h 5.6 km/h 96% 1.78 mm WeatherDisplay:10.37 W/m2 OVC
10:25 17.5 °C 16.8 °C 1016.1 hPa SW 7.4 km/h 7.4 km/h 96% 1.78 mm WeatherDisplay:10.37 W/m2 -RA
10:30 17.5 °C 16.8 °C 1015.8 hPa West 5.6 km/h 5.6 km/h 96% 1.78 mm WeatherDisplay:10.37 W/m2 -RA
10:35 17.6 °C 16.9 °C 1015.8 hPa SW 5.6 km/h 5.6 km/h 96% 2.03 mm WeatherDisplay:10.37 W/m2 -RA
10:40 17.7 °C 17 °C 1015.8 hPa SW 3.7 km/h 3.7 km/h 96% 1.52 mm WeatherDisplay:10.37 W/m2 -RA
10:45 17.9 °C 17.2 °C 1015.8 hPa SSW 5.6 km/h 5.6 km/h 96% 0.51 mm WeatherDisplay:10.37 W/m2 -RA
10:50 18.1 °C 17.4 °C 1015.8 hPa SSW 5.6 km/h 5.6 km/h 96% 0.25 mm WeatherDisplay:10.37 W/m2 -RA
10:55 18.4 °C 17.7 °C 1015.8 hPa SSW 7.4 km/h 7.4 km/h 96% 0.25 mm WeatherDisplay:10.37 W/m2 -RA
11:00 18.6 °C 17.9 °C 1015.8 hPa SW 7.4 km/h 7.4 km/h 96% 0.25 mm WeatherDisplay:10.37 W/m2 -RA
11:05 19 °C 18.3 °C 1015.8 hPa WSW 6.4 km/h 6.4 km/h 96% 0.25 mm WeatherDisplay:10.37 W/m2 OVC
11:10 19.2 °C 18.2 °C 1015.5 hPa SW 11.3 km/h 11.3 km/h 94% 0.25 mm WeatherDisplay:10.37 W/m2 OVC
11:15 19.2 °C 17.9 °C 1015.8 hPa SW 11.1 km/h 11.1 km/h 92% 0.25 mm WeatherDisplay:10.37 W/m2 OVC
11:20 19.2 °C 17.7 °C 1015.8 hPa SW 13 km/h 13 km/h 91% 0.25 mm WeatherDisplay:10.37 W/m2 OVC
11:25 19.2 °C 17.7 °C 1015.8 hPa SSW 13 km/h 13 km/h 91% 0.25 mm WeatherDisplay:10.37 W/m2 OVC
11:30 19.2 °C 17.7 °C 1015.8 hPa SW 13 km/h 13 km/h 91% 0.25 mm WeatherDisplay:10.37 W/m2 OVC
11:35 19.2 °C 17.7 °C 1015.8 hPa SW 7.4 km/h 7.4 km/h 91% 0 mm WeatherDisplay:10.37 W/m2 OVC
11:40 19.3 °C 17.8 °C 1015.8 hPa WSW 14.8 km/h 14.8 km/h 91% 0 mm WeatherDisplay:10.37 W/m2 OVC
11:45 19.4 °C 17.7 °C 1015.8 hPa SW 7.4 km/h 7.4 km/h 90% 0 mm WeatherDisplay:10.37 W/m2 OVC
11:51 19.3 °C 17.6 °C 1015.8 hPa SSW 9.7 km/h 9.7 km/h 90% 0 mm WeatherDisplay:10.37 W/m2 OVC
11:56 19.3 °C 17.6 °C 1015.8 hPa West 5.6 km/h 5.6 km/h 90% 0 mm WeatherDisplay:10.37 W/m2 OVC
12:01 19.3 °C 17.6 °C 1015.5 hPa SW 8 km/h 8 km/h 90% 0 mm WeatherDisplay:10.37 W/m2 OVC
12:06 19.4 °C 17.7 °C 1015.5 hPa WSW 7.4 km/h 7.4 km/h 90% 0 mm WeatherDisplay:10.37 W/m2 OVC
12:11 19.6 °C 17.7 °C 1015.8 hPa SW 9.3 km/h 9.3 km/h 89% 0 mm WeatherDisplay:10.37 W/m2 OVC
12:16 19.7 °C 17.8 °C 1015.5 hPa West 5.6 km/h 5.6 km/h 89% 0 mm WeatherDisplay:10.37 W/m2 OVC
12:21 19.8 °C 17.7 °C 1015.5 hPa WSW 14.5 km/h 14.5 km/h 88% 0 mm WeatherDisplay:10.37 W/m2 OVC
12:26 19.8 °C 17.8 °C 1015.5 hPa WSW 16.1 km/h 16.1 km/h 88% 0 mm WeatherDisplay:10.37 W/m2 OVC
12:31 19.9 °C 17.8 °C 1015.5 hPa SW 11.1 km/h 11.1 km/h 88% 0 mm WeatherDisplay:10.37 W/m2 OVC
12:36 20 °C 17.9 °C 1015.5 hPa SSW 9.3 km/h 9.3 km/h 88% 0 mm WeatherDisplay:10.37 W/m2 OVC
12:41 20.1 °C 18 °C 1015.5 hPa WSW 5.6 km/h 5.6 km/h 88% 0 mm WeatherDisplay:10.37 W/m2 OVC
12:46 20.3 °C 18 °C 1015.5 hPa West 9.7 km/h 9.7 km/h 87% 0 mm WeatherDisplay:10.37 W/m2 OVC
12:51 20.2 °C 17.6 °C 1015.5 hPa West 11.1 km/h 11.1 km/h 85% 0 mm WeatherDisplay:10.37 W/m2 OVC
12:56 20.2 °C 17.8 °C 1015.5 hPa SW 13 km/h 13 km/h 86% 0 mm WeatherDisplay:10.37 W/m2 OVC
12:57 20.2 °C 17.8 °C 1015.5 hPa SW 13 km/h 13 km/h 86% 0 mm WeatherDisplay:10.37 W/m2 OVC
13:02 20.3 °C 17.4 °C 1015.5 hPa SW 18.5 km/h 18.5 km/h 84% 0 mm WeatherDisplay:10.37 W/m2 OVC
13:07 20.4 °C 17.4 °C 1015.5 hPa WSW 11.1 km/h 11.1 km/h 83% 0 mm WeatherDisplay:10.37 W/m2 OVC
13:12 20.5 °C 17.7 °C 1015.5 hPa SW 11.3 km/h 11.3 km/h 84% 0 mm WeatherDisplay:10.37 W/m2 OVC
13:17 20.5 °C 17.5 °C 1015.1 hPa WSW 11.3 km/h 11.3 km/h 83% 0 mm WeatherDisplay:10.37 W/m2 OVC
13:22 20.7 °C 17.7 °C 1015.1 hPa West 11.3 km/h 11.3 km/h 83% 0 mm WeatherDisplay:10.37 W/m2 OVC
13:27 20.9 °C 17.9 °C 1014.8 hPa SSW 9.7 km/h 9.7 km/h 83% 0 mm WeatherDisplay:10.37 W/m2 OVC
13:32 21.2 °C 18 °C 1014.8 hPa South 5.6 km/h 5.6 km/h 82% 0 mm WeatherDisplay:10.37 W/m2 OVC
13:37 21.4 °C 17.6 °C 1014.8 hPa SW 13 km/h 13 km/h 79% 0 mm WeatherDisplay:10.37 W/m2 OVC
13:42 21.5 °C 17.9 °C 1014.8 hPa SSW 11.1 km/h 11.1 km/h 80% 0 mm WeatherDisplay:10.37 W/m2 OVC
13:47 21.6 °C 18 °C 1014.8 hPa WSW 11.1 km/h 11.1 km/h 80% 0 mm WeatherDisplay:10.37 W/m2 OVC
13:52 21.7 °C 17.9 °C 1014.8 hPa SW 7.4 km/h 7.4 km/h 79% 0 mm WeatherDisplay:10.37 W/m2 OVC
13:57 21.8 °C 17.6 °C 1014.4 hPa SW 9.7 km/h 9.7 km/h 77% 0 mm WeatherDisplay:10.37 W/m2 OVC
14:02 22 °C 17.8 °C 1014.4 hPa SW 9.3 km/h 9.3 km/h 77% 0 mm WeatherDisplay:10.37 W/m2 OVC
14:07 22.4 °C 18.4 °C 1014.1 hPa SSW 6.4 km/h 7.2 km/h 78% 0 mm WeatherDisplay:10.37 W/m2 OVC
14:12 22.9 °C 18.4 °C 1014.1 hPa West 14.5 km/h 14.5 km/h 76% 0 mm WeatherDisplay:10.37 W/m2 OVC
14:17 22.7 °C 17.8 °C 1014.1 hPa SSW 18.5 km/h 18.5 km/h 74% 0 mm WeatherDisplay:10.37 W/m2 OVC
14:22 22.8 °C 18.6 °C 1013.8 hPa SW 9.7 km/h 9.7 km/h 77% 0 mm WeatherDisplay:10.37 W/m2 BKN
14:27 23.2 °C 18.3 °C 1013.8 hPa SW 13 km/h 13 km/h 74% 0 mm WeatherDisplay:10.37 W/m2 BKN
14:32 23.7 °C 18.3 °C 1013.8 hPa WSW 16.7 km/h 16.7 km/h 72% 0 mm WeatherDisplay:10.37 W/m2 BKN
14:37 23.6 °C 18.4 °C 1013.8 hPa West 13 km/h 13 km/h 73% 0 mm WeatherDisplay:10.37 W/m2 BKN
14:42 23.5 °C 17.7 °C 1013.8 hPa West 14.8 km/h 14.8 km/h 70% 0 mm WeatherDisplay:10.37 W/m2 SCT
14:47 23.6 °C 17.5 °C 1013.8 hPa West 16.7 km/h 16.7 km/h 69% 0 mm WeatherDisplay:10.37 W/m2 SCT
14:52 23.7 °C 17.8 °C 1013.4 hPa SSW 11.3 km/h 11.3 km/h 70% 0 mm WeatherDisplay:10.37 W/m2 SCT
14:57 24.1 °C 18.1 °C 1013.4 hPa SSW 11.1 km/h 11.1 km/h 69% 0 mm WeatherDisplay:10.37 W/m2 SCT
15:02 24.3 °C 17.9 °C 1013.1 hPa West 18.5 km/h 18.5 km/h 68% 0 mm WeatherDisplay:10.37 W/m2 BKN
15:07 24 °C 17.4 °C 1013.1 hPa SW 16.7 km/h 16.7 km/h 67% 0 mm WeatherDisplay:10.37 W/m2 BKN
15:12 24 °C 17.7 °C 1013.1 hPa WSW 11.1 km/h 11.1 km/h 68% 0 mm WeatherDisplay:10.37 W/m2 BKN
15:17 24 °C 17.9 °C 1013.1 hPa WSW 13 km/h 13 km/h 69% 0 mm WeatherDisplay:10.37 W/m2 BKN
15:22 24 °C 17.7 °C 1012.8 hPa WSW 17.7 km/h 17.7 km/h 68% 0 mm WeatherDisplay:10.37 W/m2 BKN
15:27 23.8 °C 17.6 °C 1012.4 hPa North 22.2 km/h 22.2 km/h 68% 0 mm WeatherDisplay:10.37 W/m2 BKN
15:32 24.1 °C 17.5 °C 1012.4 hPa West 13 km/h 13 km/h 67% 0 mm WeatherDisplay:10.37 W/m2 BKN
15:37 24 °C 17.2 °C 1012.4 hPa WSW 14.8 km/h 14.8 km/h 66% 0 mm WeatherDisplay:10.37 W/m2 BKN
15:42 24.2 °C 17.7 °C 1012.4 hPa WSW 16.7 km/h 16.7 km/h 67% 0 mm WeatherDisplay:10.37 W/m2 SCT
15:47 24.3 °C 17.8 °C 1012.1 hPa SSW 11.1 km/h 11.1 km/h 67% 0 mm WeatherDisplay:10.37 W/m2 SCT
15:52 24.6 °C 18.2 °C 1012.4 hPa WSW 14.8 km/h 14.8 km/h 68% 0 mm WeatherDisplay:10.37 W/m2 SCT
15:57 24.4 °C 17.4 °C 1012.4 hPa SSW 13 km/h 13 km/h 65% 0 mm WeatherDisplay:10.37 W/m2 SCT
16:02 24.7 °C 18.1 °C 1012.4 hPa SW 7.4 km/h 7.4 km/h 67% 0 mm WeatherDisplay:10.37 W/m2 SCT
16:07 24.5 °C 16.9 °C 1012.1 hPa West 11.1 km/h 11.1 km/h 63% 0 mm WeatherDisplay:10.37 W/m2 SCT
16:12 24.1 °C 16.8 °C 1012.1 hPa WSW 11.1 km/h 11.1 km/h 64% 0 mm WeatherDisplay:10.37 W/m2 SCT
16:17 24 °C 17.2 °C 1012.1 hPa SW 8 km/h 8 km/h 66% 0 mm WeatherDisplay:10.37 W/m2 SCT
16:22 23.9 °C 16.7 °C 1012.1 hPa SSW 18.5 km/h 18.5 km/h 64% 0 mm WeatherDisplay:10.37 W/m2 BKN
16:27 23.9 °C 16.9 °C 1011.7 hPa SW 14.8 km/h 14.8 km/h 65% 0 mm WeatherDisplay:10.37 W/m2 BKN
16:28 23.9 °C 17.2 °C 1011.7 hPa West 14.8 km/h 14.8 km/h 66% 0 mm WeatherDisplay:10.37 W/m2 BKN
16:33 24 °C 17.2 °C 1011.7 hPa WSW 14.5 km/h 14.5 km/h 66% 0 mm WeatherDisplay:10.37 W/m2 BKN
16:38 23.9 °C 17.1 °C 1011.7 hPa WSW 13 km/h 13 km/h 66% 0 mm WeatherDisplay:10.37 W/m2 BKN
16:43 23.9 °C 17.1 °C 1011.7 hPa West 16.7 km/h 16.7 km/h 66% 0 mm WeatherDisplay:10.37 W/m2 BKN
16:48 23.8 °C 17 °C 1011.7 hPa WNW 11.1 km/h 11.1 km/h 66% 0 mm WeatherDisplay:10.37 W/m2 BKN
16:53 23.7 °C 16.9 °C 1011.7 hPa WSW 14.8 km/h 14.8 km/h 66% 0 mm WeatherDisplay:10.37 W/m2 BKN
16:58 23.7 °C 17.4 °C 1012.1 hPa SSW 14.8 km/h 14.8 km/h 68% 0 mm WeatherDisplay:10.37 W/m2 BKN
17:03 23.9 °C 17.4 °C 1011.7 hPa WNW 9.3 km/h 9.3 km/h 67% 0 mm WeatherDisplay:10.37 W/m2 SCT
17:08 23.7 °C 16.4 °C 1012.4 hPa NNW 16.7 km/h 16.7 km/h 64% 0 mm WeatherDisplay:10.37 W/m2 SCT
17:13 22.4 °C 15.4 °C 1012.4 hPa NW 14.8 km/h 14.8 km/h 65% 0 mm WeatherDisplay:10.37 W/m2 SCT
17:18 21.3 °C 15.6 °C 1012.4 hPa North 11.1 km/h 11.1 km/h 70% 0 mm WeatherDisplay:10.37 W/m2 SCT
17:23 20.7 °C 15.3 °C 1012.4 hPa NNE 11.1 km/h 11.1 km/h 71% 0 mm WeatherDisplay:10.37 W/m2 BKN
17:28 20.4 °C 15.2 °C 1012.4 hPa WNW 7.4 km/h 7.4 km/h 72% 0 mm WeatherDisplay:10.37 W/m2 BKN
17:33 20.3 °C 15.3 °C 1012.1 hPa NNE 7.4 km/h 7.4 km/h 73% 0 mm WeatherDisplay:10.37 W/m2 BKN
17:38 20.3 °C 15.1 °C 1012.4 hPa North 5.6 km/h 5.6 km/h 72% 0 mm WeatherDisplay:10.37 W/m2 BKN
17:43 20.3 °C 15.1 °C 1012.4 hPa NNE 7.4 km/h 7.4 km/h 72% 0 mm WeatherDisplay:10.37 W/m2 OVC
17:48 20.4 °C 15.2 °C 1012.4 hPa NNE 5.6 km/h 5.6 km/h 72% 0 mm WeatherDisplay:10.37 W/m2 OVC
17:53 20.6 °C 15.3 °C 1012.4 hPa NNE 6.4 km/h 6.4 km/h 72% 0 mm WeatherDisplay:10.37 W/m2 OVC
17:58 20.6 °C 14.9 °C 1012.8 hPa NE 5.6 km/h 5.6 km/h 70% 0 mm WeatherDisplay:10.37 W/m2 OVC
18:03 20.6 °C 14.9 °C 1012.8 hPa North 5.6 km/h 5.6 km/h 70% 0 mm WeatherDisplay:10.37 W/m2 OVC
18:08 20.5 °C 15.1 °C 1012.4 hPa NNE 7.4 km/h 7.4 km/h 71% 0 mm WeatherDisplay:10.37 W/m2 OVC
18:09 20.5 °C 15.3 °C 1012.4 hPa NNE 5.6 km/h 5.6 km/h 72% 0 mm WeatherDisplay:10.37 W/m2 OVC
18:14 20.4 °C 15 °C 1012.4 hPa NNW 1.9 km/h 1.9 km/h 71% 0 mm WeatherDisplay:10.37 W/m2 OVC
18:19 20.5 °C 15.3 °C 1012.4 hPa NNW 1.9 km/h   72% 0 mm WeatherDisplay:10.37 W/m2 OVC
18:24 20.6 °C 15.1 °C 1012.4 hPa NNW 1.9 km/h 1.9 km/h 71% 0 mm WeatherDisplay:10.37 W/m2 OVC
18:29 20.6 °C 14.9 °C 1012.8 hPa NNW 1.6 km/h   70% 0 mm WeatherDisplay:10.37 W/m2 OVC
18:34 20.7 °C 14.8 °C 1012.8 hPa Calm     69% 0 mm WeatherDisplay:10.37 W/m2 OVC
18:39 20.8 °C 14.8 °C 1012.4 hPa NNW 1.9 km/h   69% 0 mm WeatherDisplay:10.37 W/m2 OVC
18:44 20.8 °C 15.3 °C 1012.4 hPa NNW 1.6 km/h 1.6 km/h 71% 0 mm WeatherDisplay:10.37 W/m2 BKN
18:49 20.8 °C 14.9 °C 1012.4 hPa NNW 3.7 km/h 3.7 km/h 69% 0 mm WeatherDisplay:10.37 W/m2 BKN
18:55 20.7 °C 15.3 °C 1012.4 hPa NNW 1.9 km/h 1.9 km/h 71% 0 mm WeatherDisplay:10.37 W/m2 BKN
19:00 20.6 °C 15.4 °C 1012.4 hPa NNW 1.9 km/h 1.9 km/h 72% 0 mm WeatherDisplay:10.37 W/m2 BKN
19:05 20.5 °C 15.4 °C 1012.4 hPa NNW 3.2 km/h 3.2 km/h 73% 0 mm WeatherDisplay:10.37 W/m2 SCT
19:10 20.4 °C 15.4 °C 1012.4 hPa NNW 3.7 km/h 3.7 km/h 73% 0 mm WeatherDisplay:10.37 W/m2 SCT
19:15 20.2 °C 15.2 °C 1012.4 hPa Calm     73% 0 mm WeatherDisplay:10.37 W/m2 SCT
19:20 20.1 °C 15.4 °C 1012.8 hPa NNW 1.9 km/h 1.9 km/h 75% 0 mm WeatherDisplay:10.37 W/m2 SCT
19:25 19.9 °C 15.3 °C 1012.8 hPa Calm     75% 0 mm WeatherDisplay:10.37 W/m2 BKN
19:30 19.9 °C 15.3 °C 1012.8 hPa NNW 1.9 km/h 1.9 km/h 75% 0 mm WeatherDisplay:10.37 W/m2 BKN
19:35 19.8 °C 15.8 °C 1012.8 hPa SSW 11.1 km/h 11.1 km/h 78% 0 mm WeatherDisplay:10.37 W/m2 BKN
19:40 19.4 °C 16.1 °C 1013.1 hPa South 5.6 km/h 5.6 km/h 81% 0 mm WeatherDisplay:10.37 W/m2 BKN
19:45 19.1 °C 16.1 °C 1013.1 hPa West 5.6 km/h 5.6 km/h 83% 0 mm WeatherDisplay:10.37 W/m2 BKN
19:50 18.7 °C 16.1 °C 1013.1 hPa West 3.7 km/h 3.7 km/h 85% 0.51 mm WeatherDisplay:10.37 W/m2 RA
19:55 18.4 °C 16.3 °C 1013.4 hPa WSW 5.6 km/h 5.6 km/h 88% 1.02 mm WeatherDisplay:10.37 W/m2 RA
20:00 18.2 °C 16.3 °C 1013.1 hPa WSW 3.7 km/h 3.7 km/h 89% 1.27 mm WeatherDisplay:10.37 W/m2 RA
20:05 17.9 °C 16.1 °C 1013.1 hPa WSW 3.7 km/h 3.7 km/h 89% 1.78 mm WeatherDisplay:10.37 W/m2 -RA
20:10 17.8 °C 16.3 °C 1013.1 hPa South 3.2 km/h 3.2 km/h 91% 2.29 mm WeatherDisplay:10.37 W/m2 -RA
20:15 17.7 °C 16.2 °C 1013.1 hPa South 1.9 km/h 1.9 km/h 91% 2.29 mm WeatherDisplay:10.37 W/m2 -RA
20:20 17.6 °C 16.1 °C 1013.1 hPa South 1.9 km/h 1.9 km/h 91% 2.29 mm WeatherDisplay:10.37 W/m2 -RA
20:25 17.4 °C 16.1 °C 1013.4 hPa Calm     92% 2.29 mm WeatherDisplay:10.37 W/m2 OVC
20:30 17.4 °C 16.2 °C 1013.4 hPa South 1.9 km/h 1.9 km/h 93% 2.29 mm WeatherDisplay:10.37 W/m2 OVC
20:35 17.4 °C 16.2 °C 1013.8 hPa SW 5.6 km/h 5.6 km/h 93% 2.29 mm WeatherDisplay:10.37 W/m2 OVC
20:40 17.3 °C 16.2 °C 1013.8 hPa South 6.4 km/h 6.4 km/h 93% 3.3 mm WeatherDisplay:10.37 W/m2 RA
20:45 17.3 °C 16.3 °C 1013.4 hPa South 1.9 km/h 1.9 km/h 94% 3.81 mm WeatherDisplay:10.37 W/m2 RA
20:50 17.2 °C 16 °C 1013.8 hPa West 3.7 km/h 3.7 km/h 93% 3.56 mm WeatherDisplay:10.37 W/m2 RA
20:55 17.1 °C 16.1 °C 1013.8 hPa West 1.9 km/h   94% 3.3 mm WeatherDisplay:10.37 W/m2 RA
21:00 17.1 °C 16.1 °C 1013.8 hPa West 3.7 km/h 3.7 km/h 94% 3.05 mm WeatherDisplay:10.37 W/m2 RA
21:05 17 °C 16 °C 1013.8 hPa WSW 1.9 km/h 1.9 km/h 94% 2.54 mm WeatherDisplay:10.37 W/m2 OVC
21:10 17 °C 16 °C 1013.8 hPa West 1.9 km/h 1.9 km/h 94% 2.03 mm WeatherDisplay:10.37 W/m2 OVC
21:11 16.9 °C 15.9 °C 1013.8 hPa West 1.9 km/h 1.9 km/h 94% 2.03 mm WeatherDisplay:10.37 W/m2 OVC
21:16 16.9 °C 15.9 °C 1013.8 hPa Calm     94% 2.03 mm WeatherDisplay:10.37 W/m2 OVC
21:21 16.9 °C 15.9 °C 1013.8 hPa Calm     94% 2.03 mm WeatherDisplay:10.37 W/m2 OVC
21:26 16.9 °C 16.1 °C 1013.8 hPa Calm     95% 2.03 mm WeatherDisplay:10.37 W/m2 OVC
21:31 16.9 °C 16.1 °C 1013.8 hPa West 1.9 km/h 1.9 km/h 95% 2.03 mm WeatherDisplay:10.37 W/m2 OVC
21:36 16.9 °C 16.1 °C 1013.8 hPa West 3.7 km/h 3.7 km/h 95% 2.03 mm WeatherDisplay:10.37 W/m2 OVC
21:41 16.9 °C 16.1 °C 1014.1 hPa West 3.7 km/h 3.7 km/h 95% 1.02 mm WeatherDisplay:10.37 W/m2 OVC
21:46 16.9 °C 16.1 °C 1013.8 hPa West 3.7 km/h 3.7 km/h 95% 1.52 mm WeatherDisplay:10.37 W/m2 RA
21:51 16.8 °C 16 °C 1013.8 hPa SSW 3.7 km/h 3.7 km/h 95% 1.52 mm WeatherDisplay:10.37 W/m2 RA
21:56 16.8 °C 16 °C 1013.8 hPa Calm     95% 1.27 mm WeatherDisplay:10.37 W/m2 OVC
22:01 16.8 °C 15.9 °C 1013.8 hPa SSW 1.9 km/h 1.9 km/h 95% 1.27 mm WeatherDisplay:10.37 W/m2 OVC
22:06 16.8 °C 15.9 °C 1013.8 hPa SSW 1.9 km/h 1.9 km/h 95% 1.27 mm WeatherDisplay:10.37 W/m2 OVC
22:11 16.7 °C 15.9 °C 1013.4 hPa Calm     95% 1.27 mm WeatherDisplay:10.37 W/m2 OVC
22:16 16.7 °C 15.9 °C 1013.4 hPa SSW 1.9 km/h 1.9 km/h 95% 1.27 mm WeatherDisplay:10.37 W/m2 OVC
22:21 16.7 °C 15.8 °C 1013.4 hPa SSW 3.7 km/h   95% 1.27 mm WeatherDisplay:10.37 W/m2 OVC
22:26 16.6 °C 15.8 °C 1013.4 hPa Calm     95% 1.27 mm WeatherDisplay:10.37 W/m2 OVC
22:31 16.6 °C 15.8 °C 1013.4 hPa Calm     95% 1.27 mm WeatherDisplay:10.37 W/m2 OVC
22:36 16.5 °C 15.7 °C 1013.4 hPa SSW 1.9 km/h 1.9 km/h 95% 1.27 mm WeatherDisplay:10.37 W/m2 OVC
22:41 16.5 °C 15.7 °C 1013.4 hPa SSW 1.6 km/h 1.6 km/h 95% 1.52 mm WeatherDisplay:10.37 W/m2 RA
22:46 16.4 °C 15.6 °C 1013.4 hPa SSW 1.9 km/h 1.9 km/h 95% 0.25 mm WeatherDisplay:10.37 W/m2 RA
22:51 16.4 °C 15.8 °C 1013.4 hPa SSW 1.9 km/h   96% 0.25 mm WeatherDisplay:10.37 W/m2 OVC
22:56 16.4 °C 15.7 °C 1013.4 hPa SSW 1.6 km/h 1.6 km/h 96% 0.25 mm WeatherDisplay:10.37 W/m2 OVC
23:01 16.4 °C 15.7 °C 1013.4 hPa SSW 1.9 km/h 1.9 km/h 96% 0.25 mm WeatherDisplay:10.37 W/m2 OVC
23:06 16.3 °C 15.7 °C 1013.4 hPa Calm     96% 0.25 mm WeatherDisplay:10.37 W/m2 OVC
23:11 16.3 °C 15.6 °C 1013.1 hPa Calm     96% 0.25 mm WeatherDisplay:10.37 W/m2 OVC
23:16 16.3 °C 15.6 °C 1013.1 hPa SSW 1.9 km/h   96% 0.25 mm WeatherDisplay:10.37 W/m2 OVC
23:21 16.2 °C 15.6 °C 1013.1 hPa Calm     96% 0.25 mm WeatherDisplay:10.37 W/m2 OVC
23:26 16.2 °C 15.6 °C 1013.1 hPa Calm     96% 0.25 mm WeatherDisplay:10.37 W/m2 BKN
23:31 16.2 °C 15.5 °C 1013.1 hPa Calm     96% 0.25 mm WeatherDisplay:10.37 W/m2 BKN
23:36 16.2 °C 15.5 °C 1013.1 hPa Calm     96% 0.25 mm WeatherDisplay:10.37 W/m2 BKN
23:41 16.1 °C 15.4 °C 1013.1 hPa Calm     96% 0 mm WeatherDisplay:10.37 W/m2 BKN
23:46 16.1 °C 15.4 °C 1013.1 hPa Calm     96% 0 mm WeatherDisplay:10.37 W/m2 SCT
23:51 16.1 °C 15.4 °C 1013.1 hPa SSW 1.9 km/h   96% 0 mm WeatherDisplay:10.37 W/m2 SCT
23:56 16.1 °C 15.4 °C 1013.1 hPa Calm     96% 0 mm WeatherDisplay:10.37 W/m2 SCT
Smyth Weather
Compliments of Weather Underground - 3 mb